createdAt,value
2023-04-01T00:00:01.181Z,100.00
2023-04-01T00:05:01.004Z,100.00
2023-04-01T00:10:00.753Z,100.00
2023-04-01T00:15:01.961Z,100.00
2023-04-01T00:20:00.906Z,100.00
2023-04-01T00:25:00.892Z,100.00
2023-04-01T00:30:00.835Z,100.00
2023-04-01T00:35:01.058Z,100.00
2023-04-01T00:40:00.748Z,100.00
2023-04-01T00:45:20.577Z,100.00
2023-04-01T00:50:01.165Z,100.00
2023-04-01T00:55:04.734Z,98.90
2023-04-01T01:00:04.619Z,98.48
2023-04-01T01:05:01.066Z,98.26
2023-04-01T01:10:06.199Z,98.57
2023-04-01T01:15:11.839Z,98.56
2023-04-01T01:20:22.972Z,98.56
2023-04-01T01:25:12.624Z,98.81
2023-04-01T01:30:20.575Z,98.83
2023-04-01T01:35:11.658Z,99.13
2023-04-01T01:40:04.850Z,99.28
2023-04-01T01:45:03.730Z,99.68
2023-04-01T01:50:01.294Z,99.64
2023-04-01T01:55:00.690Z,99.88
2023-04-01T02:00:07.013Z,100.00
2023-04-01T02:05:03.861Z,100.00
2023-04-01T02:10:01.080Z,99.91
2023-04-01T02:15:06.440Z,100.00
2023-04-01T02:20:05.725Z,100.00
2023-04-01T02:25:06.525Z,100.00
2023-04-01T02:30:00.851Z,100.00
2023-04-01T02:35:01.309Z,100.00
2023-04-01T02:40:01.778Z,100.00
2023-04-01T02:45:00.984Z,100.00
2023-04-01T02:50:00.707Z,100.00
2023-04-01T02:55:01.112Z,100.00
2023-04-01T03:00:01.190Z,100.00
2023-04-01T03:05:00.683Z,100.00
2023-04-01T03:10:00.783Z,100.00
2023-04-01T03:15:10.462Z,100.00
2023-04-01T03:20:00.711Z,100.00
2023-04-01T03:25:01.415Z,100.00
2023-04-01T03:30:00.999Z,100.00
2023-04-01T03:35:00.765Z,100.00
2023-04-01T03:40:01.007Z,100.00
2023-04-01T03:45:00.857Z,100.00
2023-04-01T03:50:00.811Z,100.00
2023-04-01T03:55:01.600Z,100.00
2023-04-01T04:00:01.422Z,100.00
2023-04-01T04:05:01.162Z,100.00
2023-04-01T04:10:00.947Z,100.00
2023-04-01T04:15:00.946Z,100.00
2023-04-01T04:20:01.242Z,100.00
2023-04-01T04:25:00.655Z,100.00
2023-04-01T04:30:00.832Z,100.00
2023-04-01T04:35:00.789Z,100.00
2023-04-01T04:40:00.715Z,100.00
2023-04-01T04:45:00.671Z,100.00
2023-04-01T04:50:00.689Z,100.00
2023-04-01T04:55:00.658Z,100.00
2023-04-01T05:00:01.514Z,100.00
2023-04-01T05:05:00.759Z,100.00
2023-04-01T05:10:00.707Z,100.00
2023-04-01T05:15:00.695Z,100.00
2023-04-01T05:20:01.475Z,100.00
2023-04-01T05:25:00.739Z,100.00
2023-04-01T05:30:00.747Z,100.00
2023-04-01T05:35:00.706Z,100.00
2023-04-01T05:40:00.970Z,100.00
2023-04-01T05:45:00.691Z,100.00
2023-04-01T05:50:00.722Z,100.00
2023-04-01T05:55:00.684Z,100.00
2023-04-01T06:00:01.324Z,100.00
2023-04-01T06:05:10.810Z,100.00
2023-04-01T06:10:00.677Z,100.00
2023-04-01T06:15:20.578Z,100.00
2023-04-01T06:20:12.351Z,100.00
2023-04-01T06:25:09.828Z,100.00
2023-04-01T06:30:14.510Z,100.00
2023-04-01T06:35:11.286Z,100.00
2023-04-01T06:40:12.330Z,99.82
2023-04-01T06:45:19.426Z,99.74
2023-04-01T06:50:14.703Z,99.69
2023-04-01T06:55:17.873Z,99.78
2023-04-01T07:00:11.012Z,99.59
2023-04-01T07:05:02.340Z,99.86
2023-04-01T07:10:06.046Z,99.81
2023-04-01T07:15:13.163Z,99.89
2023-04-01T07:20:00.718Z,100.00
2023-04-01T07:25:05.708Z,100.00
2023-04-01T07:30:01.275Z,100.00
2023-04-01T07:35:04.923Z,100.00
2023-04-01T07:40:11.634Z,100.00
2023-04-01T07:45:11.640Z,100.00
2023-04-01T07:50:02.706Z,100.00
2023-04-01T07:55:09.399Z,100.00
2023-04-01T08:00:08.775Z,100.00
2023-04-01T08:05:14.076Z,100.00
2023-04-01T08:10:19.133Z,100.00
2023-04-01T08:15:12.459Z,100.00
2023-04-01T08:20:17.974Z,100.00
2023-04-01T08:25:04.470Z,100.00
2023-04-01T08:30:13.672Z,100.00
2023-04-01T08:35:17.899Z,100.00
2023-04-01T08:40:10.642Z,99.97
2023-04-01T08:45:20.572Z,99.77
2023-04-01T08:50:20.576Z,99.59
2023-04-01T08:55:14.511Z,99.22
2023-04-01T09:00:11.708Z,99.24
2023-04-01T09:05:20.575Z,99.67
2023-04-01T09:10:20.640Z,99.62
2023-04-01T09:15:19.463Z,99.10
2023-04-01T09:20:20.637Z,98.77
2023-04-01T09:25:16.021Z,99.02
2023-04-01T09:30:13.932Z,98.67
2023-04-01T09:35:10.670Z,98.80
2023-04-01T09:40:16.952Z,98.77
2023-04-01T09:45:07.501Z,98.91
2023-04-01T09:50:10.647Z,99.16
2023-04-01T09:55:11.425Z,99.12
2023-04-01T10:00:18.169Z,98.90
2023-04-01T10:05:10.691Z,98.35
2023-04-01T10:10:20.584Z,98.75
2023-04-01T10:15:10.683Z,98.92
2023-04-01T10:20:20.577Z,98.92
2023-04-01T10:25:11.978Z,98.42
2023-04-01T10:30:20.587Z,98.98
2023-04-01T10:35:18.071Z,99.53
2023-04-01T10:40:20.620Z,99.06
2023-04-01T10:45:10.650Z,98.85
2023-04-01T10:50:13.875Z,98.59
2023-04-01T10:55:18.856Z,99.05
2023-04-01T11:00:10.911Z,99.49
2023-04-01T11:05:30.995Z,98.76
2023-04-01T11:10:20.568Z,98.77
2023-04-01T11:15:08.088Z,99.48
2023-04-01T11:20:13.117Z,98.69
2023-04-01T11:25:08.179Z,99.38
2023-04-01T11:30:09.123Z,96.66
2023-04-01T11:35:20.599Z,96.87
2023-04-01T11:40:12.542Z,96.73
2023-04-01T11:45:15.500Z,97.43
2023-04-01T11:50:00.661Z,97.46
2023-04-01T11:55:11.658Z,95.43
2023-04-01T12:00:17.713Z,96.05
2023-04-01T12:05:02.693Z,96.07
2023-04-01T12:10:20.589Z,94.66
2023-04-01T12:15:20.559Z,94.33
2023-04-01T12:20:11.686Z,94.23
2023-04-01T12:25:20.564Z,94.29
2023-04-01T12:30:09.170Z,95.20
2023-04-01T12:35:15.694Z,96.73
2023-04-01T12:40:11.646Z,97.61
2023-04-01T12:45:18.132Z,95.39
2023-04-01T12:50:13.900Z,93.77
2023-04-01T12:55:20.591Z,93.66
2023-04-01T13:00:11.092Z,92.68
2023-04-01T13:05:10.664Z,94.32
2023-04-01T13:10:20.174Z,94.15
2023-04-01T13:15:11.655Z,95.04
2023-04-01T13:20:20.590Z,95.64
2023-04-01T13:25:19.270Z,95.84
2023-04-01T13:30:03.406Z,96.00
2023-04-01T13:35:14.383Z,96.21
2023-04-01T13:40:17.961Z,96.00
2023-04-01T13:45:04.876Z,96.17
2023-04-01T13:50:20.591Z,96.22
2023-04-01T13:55:10.698Z,96.85
2023-04-01T14:00:17.283Z,96.30
2023-04-01T14:05:09.298Z,93.62
2023-04-01T14:10:09.199Z,93.00
2023-04-01T14:15:18.045Z,91.67
2023-04-01T14:20:11.636Z,92.68
2023-04-01T14:25:20.588Z,94.27
2023-04-01T14:30:20.576Z,92.75
2023-04-01T14:35:18.048Z,93.06
2023-04-01T14:40:12.173Z,93.07
2023-04-01T14:45:18.107Z,93.85
2023-04-01T14:50:09.037Z,93.61
2023-04-01T14:55:02.834Z,93.96
2023-04-01T15:00:14.898Z,94.54
2023-04-01T15:05:13.649Z,94.96
2023-04-01T15:10:12.472Z,95.46
2023-04-01T15:15:11.653Z,95.97
2023-04-01T15:20:23.516Z,95.65
2023-04-01T15:25:21.622Z,95.94
2023-04-01T15:30:10.663Z,96.00
2023-04-01T15:35:13.917Z,96.26
2023-04-01T15:40:18.001Z,96.37
2023-04-01T15:45:10.599Z,96.13
2023-04-01T15:50:20.627Z,96.40
2023-04-01T15:55:20.573Z,96.14
2023-04-01T16:00:18.816Z,96.34
2023-04-01T16:05:19.233Z,96.52
2023-04-01T16:10:20.576Z,96.52
2023-04-01T16:15:20.077Z,96.50
2023-04-01T16:20:17.039Z,96.39
2023-04-01T16:25:20.583Z,96.27
2023-04-01T16:30:18.126Z,96.34
2023-04-01T16:35:18.653Z,95.79
2023-04-01T16:40:14.128Z,95.65
2023-04-01T16:45:08.164Z,95.70
2023-04-01T16:50:10.630Z,95.73
2023-04-01T16:55:13.716Z,95.63
2023-04-01T17:00:10.773Z,95.95
2023-04-01T17:05:05.939Z,96.06
2023-04-01T17:10:13.825Z,95.86
2023-04-01T17:15:10.644Z,95.94
2023-04-01T17:20:05.927Z,95.92
2023-04-01T17:25:13.601Z,96.39
2023-04-01T17:30:14.569Z,96.25
2023-04-01T17:35:02.703Z,95.94
2023-04-01T17:40:13.110Z,95.79
2023-04-01T17:45:18.425Z,95.91
2023-04-01T17:50:09.056Z,96.10
2023-04-01T17:55:10.678Z,95.83
2023-04-01T18:00:13.210Z,95.87
2023-04-01T18:05:20.570Z,95.99
2023-04-01T18:10:17.739Z,95.88
2023-04-01T18:15:13.884Z,95.89
2023-04-01T18:20:07.590Z,95.89
2023-04-01T18:25:14.744Z,95.74
2023-04-01T18:30:12.422Z,95.78
2023-04-01T18:35:18.133Z,95.68
2023-04-01T18:40:13.969Z,95.82
2023-04-01T18:45:10.677Z,95.85
2023-04-01T18:50:20.572Z,95.96
2023-04-01T18:55:00.663Z,96.05
2023-04-01T19:00:14.739Z,95.90
2023-04-01T19:05:13.902Z,95.98
2023-04-01T19:10:13.558Z,95.68
2023-04-01T19:15:20.590Z,95.54
2023-04-01T19:20:18.090Z,95.50
2023-04-01T19:25:20.476Z,95.29
2023-04-01T19:30:18.169Z,95.11
2023-04-01T19:35:11.658Z,95.22
2023-04-01T19:40:20.031Z,95.06
2023-04-01T19:45:10.659Z,95.22
2023-04-01T19:50:11.646Z,95.18
2023-04-01T19:55:13.900Z,94.95
2023-04-01T20:00:06.519Z,94.71
2023-04-01T20:05:14.984Z,94.71
2023-04-01T20:10:09.309Z,94.72
2023-04-01T20:15:06.722Z,94.74
2023-04-01T20:20:08.019Z,94.84
2023-04-01T20:25:13.224Z,94.92
2023-04-01T20:30:20.575Z,94.81
2023-04-01T20:35:16.757Z,94.93
2023-04-01T20:40:20.599Z,94.74
2023-04-01T20:45:21.628Z,94.72
2023-04-01T20:50:13.922Z,94.50
2023-04-01T20:55:20.619Z,94.23
2023-04-01T21:00:18.252Z,94.32
2023-04-01T21:05:20.626Z,94.15
2023-04-01T21:10:20.578Z,94.24
2023-04-01T21:15:20.601Z,94.58
2023-04-01T21:20:10.653Z,94.24
2023-04-01T21:25:09.199Z,94.34
2023-04-01T21:30:17.914Z,94.16
2023-04-01T21:35:20.563Z,94.35
2023-04-01T21:40:03.919Z,94.54
2023-04-01T21:45:09.276Z,94.36
2023-04-01T21:50:01.710Z,94.41
2023-04-01T21:55:20.563Z,94.30
2023-04-01T22:00:20.641Z,94.35
2023-04-01T22:05:18.129Z,94.13
2023-04-01T22:10:04.084Z,94.14
2023-04-01T22:15:13.339Z,93.97
2023-04-01T22:20:11.716Z,94.22
2023-04-01T22:25:20.563Z,93.94
2023-04-01T22:30:16.037Z,93.97
2023-04-01T22:35:12.827Z,94.06
2023-04-01T22:40:14.515Z,93.95
2023-04-01T22:45:00.668Z,94.00
2023-04-01T22:50:09.875Z,93.67
2023-04-01T22:55:08.083Z,93.77
2023-04-01T23:00:14.802Z,93.57
2023-04-01T23:05:05.103Z,93.32
2023-04-01T23:10:05.668Z,93.49
2023-04-01T23:15:01.848Z,92.98
2023-04-01T23:20:20.582Z,93.25
2023-04-01T23:25:10.664Z,93.58
2023-04-01T23:30:01.141Z,93.60
2023-04-01T23:35:00.921Z,93.85
2023-04-01T23:40:00.843Z,93.75
2023-04-01T23:45:04.941Z,93.49
2023-04-01T23:50:04.916Z,93.60
2023-04-01T23:55:10.675Z,93.75
